Time;durP1;ratioP1;P1;durP2;ratioP2;P2;SDS_P1;SDS_P2;PMS_P1;PMS_P2;Temp;Humidity;BMP_temperature;BMP_pressure;BME280_temperature;BME280_humidity;BME280_pressure;Samples;Min_cycle;Max_cycle;Signal;HPM_P1;HPM_P2
2022/03/12 00:00:43;;;;;;;7.55;6.40;;;;;;;9.21;27.36;100853.25;5051552;27;20702;-71
2022/03/12 00:03:09;;;;;;;6.00;5.50;;;;;;;9.13;27.79;100858.31;5035375;27;20618;-71
2022/03/12 00:05:36;;;;;;;9.23;5.93;;;;;;;9.09;27.43;100855.09;5040755;27;20038;-71
2022/03/12 00:08:05;;;;;;;7.35;6.00;;;;;;;9.23;27.46;100871.59;5028643;27;20029;-70
2022/03/12 00:10:34;;;;;;;6.53;5.93;;;;;;;9.12;27.01;100861.91;5006510;27;20052;-72
2022/03/12 00:13:02;;;;;;;6.90;5.80;;;;;;;9.13;27.46;100875.97;5018520;27;20065;-71
2022/03/12 00:15:32;;;;;;;6.43;5.70;;;;;;;9.04;27.97;100866.97;4996489;27;20406;-71
2022/03/12 00:17:58;;;;;;;8.23;5.78;;;;;;;9.10;27.51;100869.13;5029512;27;20021;-71
2022/03/12 00:20:25;;;;;;;8.18;6.07;;;;;;;9.08;27.86;100863.97;5030022;27;20020;-72
2022/03/12 00:22:51;;;;;;;6.65;5.85;;;;;;;9.05;27.91;100874.78;5029639;27;20025;-71
2022/03/12 00:25:22;;;;;;;8.43;6.15;;;;;;;9.16;27.79;100873.91;5031370;27;20284;-71
2022/03/12 00:27:50;;;;;;;11.90;6.57;;;;;;;9.16;27.47;100870.44;5029892;27;20049;-71
2022/03/12 00:30:17;;;;;;;7.15;6.10;;;;;;;9.12;27.75;100872.47;5029586;27;20044;-70
2022/03/12 00:32:44;;;;;;;7.78;6.50;;;;;;;9.07;27.75;100861.47;5029709;27;20308;-73
2022/03/12 00:35:10;;;;;;;7.32;6.00;;;;;;;9.06;28.26;100868.53;5014603;27;20021;-72
2022/03/12 00:37:36;;;;;;;6.72;5.82;;;;;;;9.05;27.78;100863.38;5031949;28;20032;-71
2022/03/12 00:40:01;;;;;;;8.75;6.03;;;;;;;9.06;28.14;100865.88;5022746;28;20877;-71
2022/03/12 00:42:27;;;;;;;6.30;5.70;;;;;;;9.07;27.83;100869.38;5030827;27;20028;-71
2022/03/12 00:44:52;;;;;;;6.43;5.93;;;;;;;9.03;28.18;100868.78;5029338;28;21007;-70
2022/03/12 00:47:17;;;;;;;7.68;6.10;;;;;;;9.13;27.99;100873.31;4995833;28;20024;-71
2022/03/12 00:49:44;;;;;;;7.28;6.57;;;;;;;9.08;27.72;100874.53;5011528;28;20037;-71
2022/03/12 00:52:10;;;;;;;7.32;6.18;;;;;;;9.06;28.26;100870.34;5028089;27;20059;-71
2022/03/12 00:54:36;;;;;;;7.03;6.35;;;;;;;9.01;28.53;100875.13;5031776;27;20332;-71
2022/03/12 00:57:01;;;;;;;7.20;6.50;;;;;;;9.05;28.12;100877.44;5029118;27;20025;-71
2022/03/12 00:59:26;;;;;;;14.27;7.10;;;;;;;9.05;28.46;100889.78;5011155;28;20005;-71
2022/03/12 01:01:52;;;;;;;7.40;6.70;;;;;;;9.09;28.82;100880.66;4993364;28;20021;-71
2022/03/12 01:04:17;;;;;;;7.38;6.68;;;;;;;9.05;28.63;100879.22;5030001;28;20339;-70
2022/03/12 01:06:43;;;;;;;9.45;6.65;;;;;;;9.00;29.09;100884.03;5020702;28;20021;-70
2022/03/12 01:09:10;;;;;;;7.05;6.38;;;;;;;8.98;28.97;100886.78;5030254;27;20029;-71
2022/03/12 01:11:36;;;;;;;8.50;6.22;;;;;;;9.00;28.45;100892.78;5032059;27;20893;-71
2022/03/12 01:14:02;;;;;;;6.82;6.15;;;;;;;9.00;28.32;100881.41;5029399;27;20032;-71
2022/03/12 01:16:27;;;;;;;7.35;6.60;;;;;;;8.99;28.48;100885.00;5013757;28;20248;-71
2022/03/12 01:18:52;;;;;;;7.93;6.65;;;;;;;9.06;28.14;100886.19;5032036;28;20563;-70
2022/03/12 01:21:18;;;;;;;7.70;6.05;;;;;;;8.96;28.80;100890.53;5029917;27;20612;-71
2022/03/12 01:23:47;;;;;;;7.78;6.63;;;;;;;8.97;29.10;100897.47;5015660;27;20183;-70
2022/03/12 01:26:13;;;;;;;7.55;6.43;;;;;;;8.94;28.66;100891.47;5010209;28;20486;-71
2022/03/12 01:28:38;;;;;;;7.10;6.28;;;;;;;9.06;28.68;100897.56;4994729;28;20937;-71
2022/03/12 01:31:04;;;;;;;7.32;6.40;;;;;;;9.05;28.76;100881.84;4982795;28;20186;-71
2022/03/12 01:33:29;;;;;;;7.10;6.40;;;;;;;8.92;28.94;100890.75;4983739;28;20025;-71
2022/03/12 01:35:55;;;;;;;7.93;6.28;;;;;;;8.92;28.45;100895.19;4990459;28;20102;-71
2022/03/12 01:38:32;;;;;;;7.15;6.35;;;;;;;9.04;28.08;100893.38;5037433;27;20900;-71
2022/03/12 01:41:03;;;;;;;9.07;6.38;;;;;;;8.97;28.97;100897.47;5025212;27;20048;-70
2022/03/12 01:43:31;;;;;;;7.88;6.18;;;;;;;8.91;28.50;100894.38;5016095;28;20121;-71
2022/03/12 01:46:00;;;;;;;12.80;6.13;;;;;;;8.94;28.52;100904.66;5014304;28;20026;-71
2022/03/12 01:48:26;;;;;;;7.25;6.15;;;;;;;8.87;29.44;100907.91;5022539;27;20475;-71
2022/03/12 01:50:51;;;;;;;6.85;5.68;;;;;;;8.89;29.02;100901.56;5018626;27;20844;-71
2022/03/12 01:53:17;;;;;;;6.47;5.80;;;;;;;8.87;29.58;100908.75;5018754;27;20028;-71
2022/03/12 01:55:43;;;;;;;7.07;6.22;;;;;;;8.88;29.24;100904.31;5036637;27;20032;-71
2022/03/12 01:58:08;;;;;;;6.57;5.88;;;;;;;8.84;29.20;100910.78;5037026;27;20398;-70
2022/03/12 02:00:44;;;;;;;7.57;6.20;;;;;;;8.83;29.30;100912.59;5036997;27;20024;-72
2022/03/12 02:03:10;;;;;;;9.18;6.45;;;;;;;8.88;28.93;100910.44;5037255;27;20029;-70
2022/03/12 02:05:35;;;;;;;9.40;6.32;;;;;;;8.91;28.87;100915.47;5040494;27;20025;-71
2022/03/12 02:08:02;;;;;;;7.63;6.43;;;;;;;8.93;29.06;100910.91;5042740;27;20021;-72
2022/03/12 02:10:27;;;;;;;8.50;6.00;;;;;;;8.85;29.37;100910.66;5036573;27;20813;-71
2022/03/12 02:12:53;;;;;;;6.82;6.10;;;;;;;8.82;29.71;100915.38;5038474;27;20047;-71
2022/03/12 02:15:19;;;;;;;7.18;6.40;;;;;;;8.80;30.26;100909.34;5042195;27;20033;-71
2022/03/12 02:17:44;;;;;;;7.38;6.63;;;;;;;8.82;29.48;100918.84;5023570;27;20750;-70
2022/03/12 02:20:10;;;;;;;7.03;6.28;;;;;;;8.84;29.12;100919.56;5043129;27;20021;-71
2022/03/12 02:22:35;;;;;;;7.65;6.15;;;;;;;8.85;28.89;100915.94;5021706;27;20021;-71
2022/03/12 02:25:01;;;;;;;7.45;6.68;;;;;;;8.88;29.16;100917.50;5024876;27;20013;-71
2022/03/12 02:27:26;;;;;;;6.88;6.25;;;;;;;8.85;29.49;100913.31;5009944;27;20013;-71
2022/03/12 02:29:59;;;;;;;7.22;6.53;;;;;;;8.77;29.50;100918.34;5044395;27;20036;-71
2022/03/12 02:32:24;;;;;;;7.57;6.63;;;;;;;8.75;29.92;100918.47;5042313;27;20124;-71
2022/03/12 02:34:49;;;;;;;8.00;6.28;;;;;;;8.75;29.92;100926.38;5044379;27;20060;-71
2022/03/12 02:37:28;;;;;;;8.70;6.95;;;;;;;8.71;29.48;100929.41;5025535;27;20035;-71
2022/03/12 02:39:53;;;;;;;7.20;6.50;;;;;;;8.75;29.74;100936.09;5047310;27;20171;-71
2022/03/12 02:42:19;;;;;;;7.20;6.50;;;;;;;8.68;29.42;100929.63;5043338;27;20327;-71
2022/03/12 02:44:45;;;;;;;8.02;6.30;;;;;;;8.72;29.71;100937.19;5013422;27;20404;-71
2022/03/12 02:47:11;;;;;;;6.90;6.20;;;;;;;8.72;29.83;100936.34;5047805;27;20056;-71
2022/03/12 02:49:38;;;;;;;7.43;6.68;;;;;;;8.67;29.94;100949.91;5050007;27;20029;-71
2022/03/12 02:52:04;;;;;;;9.50;7.03;;;;;;;8.69;29.73;100936.59;5050360;27;20335;-71
2022/03/12 02:54:30;;;;;;;6.80;6.20;;;;;;;8.73;30.10;100948.59;5069269;27;20120;-71
2022/03/12 02:56:56;;;;;;;8.90;6.45;;;;;;;8.70;30.19;100947.03;5068434;27;20565;-70
2022/03/12 02:59:21;;;;;;;10.68;6.80;;;;;;;8.66;30.25;100950.88;5036585;27;21016;-71
2022/03/12 03:01:47;;;;;;;7.80;6.38;;;;;;;8.58;30.35;100951.44;5032592;27;20529;-72
2022/03/12 03:04:12;;;;;;;8.80;6.53;;;;;;;8.56;30.83;100953.38;5031533;27;20818;-71
2022/03/12 03:06:38;;;;;;;6.97;6.32;;;;;;;8.57;30.69;100949.78;5034802;27;20070;-71
2022/03/12 03:09:04;;;;;;;8.77;6.68;;;;;;;8.59;30.84;100952.31;5030809;27;20033;-71
2022/03/12 03:11:35;;;;;;;7.40;6.00;;;;;;;8.59;30.82;100953.13;5029277;27;20283;-71
2022/03/12 03:14:00;;;;;;;7.13;6.43;;;;;;;8.59;31.14;100952.31;5030748;27;20925;-71
2022/03/12 03:16:31;;;;;;;7.50;6.75;;;;;;;8.54;31.17;100944.72;5029894;27;20061;-71
2022/03/12 03:18:57;;;;;;;10.23;6.72;;;;;;;8.57;30.42;100943.66;5035214;27;20611;-70
2022/03/12 03:21:23;;;;;;;7.55;6.72;;;;;;;8.54;30.64;100947.38;5032145;27;21125;-71
2022/03/12 03:23:49;;;;;;;9.70;6.32;;;;;;;8.50;31.04;100950.38;5033648;27;20025;-71
2022/03/12 03:26:19;;;;;;;7.43;6.60;;;;;;;8.54;31.32;100965.00;5047259;27;20187;-71
2022/03/12 03:28:44;;;;;;;7.30;6.60;;;;;;;8.45;31.53;100956.00;5033853;27;20032;-71
2022/03/12 03:31:09;;;;;;;7.35;6.60;;;;;;;8.46;31.58;100967.38;5052056;27;20223;-71
2022/03/12 03:33:35;;;;;;;10.13;6.80;;;;;;;8.41;31.57;100959.78;5052535;27;20299;-70
2022/03/12 03:36:00;;;;;;;9.05;6.60;;;;;;;8.46;31.58;100964.75;5031750;27;20730;-71
2022/03/12 03:38:26;;;;;;;8.50;6.40;;;;;;;8.37;32.15;100964.44;5013945;27;20035;-71
2022/03/12 03:40:51;;;;;;;7.80;6.70;;;;;;;8.40;31.77;100953.69;5012026;27;20363;-71
2022/03/12 03:43:21;;;;;;;8.40;6.88;;;;;;;8.36;32.60;100956.66;5016445;27;20025;-72
2022/03/12 03:45:48;;;;;;;7.47;6.68;;;;;;;8.38;32.25;100960.03;5012408;27;20188;-71
2022/03/12 03:48:19;;;;;;;8.38;6.47;;;;;;;8.42;32.71;100962.31;5015491;27;20028;-70
2022/03/12 03:50:45;;;;;;;7.63;6.88;;;;;;;8.42;32.18;100966.75;5013382;27;20097;-71
2022/03/12 03:53:12;;;;;;;10.45;7.03;;;;;;;8.32;32.92;100969.25;5031327;27;20069;-71
2022/03/12 03:55:38;;;;;;;7.57;6.57;;;;;;;8.27;33.22;100958.22;5030463;27;20021;-70
2022/03/12 03:58:04;;;;;;;14.38;6.90;;;;;;;8.39;32.55;100969.59;5031817;27;20074;-71
2022/03/12 04:00:31;;;;;;;9.15;7.15;;;;;;;8.35;33.13;100968.19;5011911;27;20029;-71
2022/03/12 04:03:02;;;;;;;7.65;6.80;;;;;;;8.41;32.68;100975.63;5046416;27;20027;-71
2022/03/12 04:05:38;;;;;;;7.43;6.72;;;;;;;8.40;32.45;100968.66;5027000;27;20009;-71
2022/03/12 04:08:07;;;;;;;7.40;6.60;;;;;;;8.44;33.05;100975.38;5031160;27;20031;-71
2022/03/12 04:10:35;;;;;;;10.48;6.72;;;;;;;8.38;33.20;100970.59;5020655;27;20033;-71
2022/03/12 04:13:01;;;;;;;8.02;6.90;;;;;;;8.37;32.92;100975.00;5034365;27;20037;-70
2022/03/12 04:15:26;;;;;;;7.82;7.03;;;;;;;8.33;33.12;100980.63;5013645;27;20196;-71
2022/03/12 04:17:52;;;;;;;11.35;6.75;;;;;;;8.38;33.27;100989.03;5030267;27;20013;-71
2022/03/12 04:20:21;;;;;;;8.27;7.47;;;;;;;8.36;33.39;100988.31;4995389;27;20731;-71
2022/03/12 04:22:47;;;;;;;8.20;7.40;;;;;;;8.37;33.25;100987.34;4993477;28;20059;-71
2022/03/12 04:25:12;;;;;;;10.77;7.88;;;;;;;8.39;33.40;100982.78;5009714;27;20022;-71
2022/03/12 04:27:38;;;;;;;10.02;6.68;;;;;;;8.36;33.85;100988.31;4990920;28;20025;-71
2022/03/12 04:30:05;;;;;;;9.75;7.60;;;;;;;8.36;33.93;100983.88;4993084;27;20033;-73
2022/03/12 04:32:31;;;;;;;9.32;7.43;;;;;;;8.30;34.01;100980.88;5010138;27;20535;-71
2022/03/12 04:34:56;;;;;;;10.38;7.30;;;;;;;8.33;34.05;100989.38;5028430;27;20775;-71
2022/03/12 04:37:22;;;;;;;9.38;7.47;;;;;;;8.26;34.16;100990.78;5031752;27;20013;-71
2022/03/12 04:39:49;;;;;;;8.63;7.35;;;;;;;8.29;33.99;100985.31;5025746;28;20024;-71
2022/03/12 04:42:17;;;;;;;10.38;7.40;;;;;;;8.31;33.88;100990.47;5034180;27;20036;-71
2022/03/12 04:44:43;;;;;;;11.38;7.65;;;;;;;8.24;34.36;101005.91;5034208;28;20498;-70
2022/03/12 04:47:10;;;;;;;9.07;7.55;;;;;;;8.16;34.49;101000.34;5032302;27;20013;-71
2022/03/12 04:49:35;;;;;;;8.15;7.35;;;;;;;8.23;34.52;101005.06;5014545;28;20062;-70
2022/03/12 04:52:01;;;;;;;8.32;7.53;;;;;;;8.13;34.87;100998.78;5031307;27;20009;-71
2022/03/12 04:54:33;;;;;;;7.75;7.03;;;;;;;8.12;35.27;101002.38;5031631;28;20025;-70
2022/03/12 04:56:58;;;;;;;10.27;7.53;;;;;;;8.12;35.26;100997.09;4999636;28;20013;-70
2022/03/12 04:59:24;;;;;;;10.73;7.47;;;;;;;8.13;35.29;101008.50;5033100;27;20237;-71
2022/03/12 05:01:49;;;;;;;8.07;7.30;;;;;;;8.18;34.82;101004.56;5033529;27;20377;-70
2022/03/12 05:04:15;;;;;;;8.98;7.68;;;;;;;8.14;35.14;100995.19;5026978;27;20545;-71
2022/03/12 05:06:40;;;;;;;10.23;7.45;;;;;;;8.12;35.71;100997.09;5036554;27;20013;-71
2022/03/12 05:09:05;;;;;;;7.95;7.15;;;;;;;8.08;35.46;101000.94;5015016;27;20046;-71
2022/03/12 05:11:34;;;;;;;7.82;7.03;;;;;;;8.11;35.89;101003.34;5018089;27;20021;-71
2022/03/12 05:14:00;;;;;;;15.07;8.25;;;;;;;8.03;35.78;101005.72;5020720;27;20297;-71
2022/03/12 05:16:28;;;;;;;10.30;8.00;;;;;;;8.01;36.01;100999.69;5039378;27;20005;-71
2022/03/12 05:18:56;;;;;;;8.98;7.72;;;;;;;8.00;36.04;100998.03;5039691;27;20934;-70
2022/03/12 05:21:21;;;;;;;10.57;8.30;;;;;;;8.00;36.20;100998.84;5046125;27;20016;-70
2022/03/12 05:23:46;;;;;;;12.77;7.97;;;;;;;8.02;36.12;101006.66;5041488;27;20039;-70
2022/03/12 05:26:12;;;;;;;10.80;7.63;;;;;;;8.03;36.37;101006.53;5061478;27;20013;-70
2022/03/12 05:28:40;;;;;;;10.07;7.75;;;;;;;7.93;36.89;101008.19;5065183;27;20045;-71
2022/03/12 05:31:06;;;;;;;9.70;7.70;;;;;;;7.92;36.49;101011.75;5025331;27;20025;-71
2022/03/12 05:33:31;;;;;;;9.15;7.78;;;;;;;7.90;37.40;101024.22;5039243;27;20025;-71
2022/03/12 05:35:58;;;;;;;10.27;8.25;;;;;;;7.89;37.00;101033.91;5041083;27;20024;-70
2022/03/12 05:38:24;;;;;;;8.23;7.43;;;;;;;7.84;37.21;101030.78;5044671;27;20329;-71
2022/03/12 05:40:50;;;;;;;9.40;8.02;;;;;;;7.79;38.04;101030.25;5035404;27;20017;-71
2022/03/12 05:43:15;;;;;;;9.20;7.55;;;;;;;7.91;37.77;101029.38;5047070;27;20029;-70
2022/03/12 05:45:44;;;;;;;8.63;7.78;;;;;;;7.89;37.87;101023.34;5049285;27;20039;-71
2022/03/12 05:48:10;;;;;;;8.70;7.72;;;;;;;7.87;38.26;101035.81;5014321;27;20114;-71
2022/03/12 05:50:36;;;;;;;8.50;7.63;;;;;;;7.86;38.96;101034.13;5049382;27;20028;-71
2022/03/12 05:53:02;;;;;;;8.57;7.68;;;;;;;7.85;39.06;101042.97;5047112;27;20021;-71
2022/03/12 05:55:27;;;;;;;9.70;7.70;;;;;;;7.84;39.09;101036.06;5046383;27;20485;-71
2022/03/12 05:57:53;;;;;;;9.75;8.45;;;;;;;7.81;39.44;101036.28;5028338;27;20872;-71
2022/03/12 06:00:18;;;;;;;11.13;8.20;;;;;;;7.85;39.45;101037.72;5044204;27;20105;-71
2022/03/12 06:02:49;;;;;;;9.02;8.10;;;;;;;7.83;40.04;101036.16;5030476;27;20017;-70
2022/03/12 06:05:16;;;;;;;8.98;8.00;;;;;;;7.82;40.14;101035.31;5051510;27;20029;-68
2022/03/12 06:07:45;;;;;;;15.45;8.15;;;;;;;7.85;40.57;101042.97;5057477;27;20156;-70
2022/03/12 06:10:12;;;;;;;8.65;7.75;;;;;;;7.89;41.01;101043.59;5042745;27;20051;-71
2022/03/12 06:12:39;;;;;;;9.02;7.97;;;;;;;7.92;40.84;101043.38;5036437;27;20025;-71
2022/03/12 06:15:05;;;;;;;8.80;7.57;;;;;;;7.86;41.61;101043.84;5037043;27;20202;-71
2022/03/12 06:17:31;;;;;;;12.38;7.88;;;;;;;7.88;41.77;101042.78;5021069;27;20005;-70
2022/03/12 06:19:56;;;;;;;11.55;8.30;;;;;;;7.90;41.95;101040.84;5018468;27;20017;-70
2022/03/12 06:22:22;;;;;;;8.38;7.57;;;;;;;7.91;42.09;101041.72;5035680;27;20938;-72
2022/03/12 06:24:48;;;;;;;9.02;8.13;;;;;;;7.88;42.51;101048.06;5041303;27;20157;-72
2022/03/12 06:27:17;;;;;;;9.05;7.93;;;;;;;7.88;42.66;101036.66;5042358;27;20013;-71
2022/03/12 06:29:42;;;;;;;8.85;7.82;;;;;;;7.94;42.94;101056.44;5039026;27;20037;-71
2022/03/12 06:32:11;;;;;;;8.68;7.78;;;;;;;7.95;43.43;101043.16;5039469;27;20020;-71
2022/03/12 06:34:37;;;;;;;10.52;8.23;;;;;;;8.07;43.06;101046.69;5024246;27;20215;-71
2022/03/12 06:37:03;;;;;;;9.85;7.70;;;;;;;8.04;43.54;101046.94;5036630;27;20044;-69
2022/03/12 06:39:29;;;;;;;8.73;7.60;;;;;;;8.01;43.37;101032.19;5037771;27;20035;-70
2022/03/12 06:41:55;;;;;;;11.00;7.80;;;;;;;8.02;43.47;101043.53;5040950;27;20759;-71
2022/03/12 06:44:21;;;;;;;7.97;7.18;;;;;;;8.03;43.71;101061.06;5038848;27;20474;-71
2022/03/12 06:46:49;;;;;;;8.52;7.50;;;;;;;8.14;43.64;101047.91;5022224;27;20934;-71
2022/03/12 06:49:14;;;;;;;8.23;6.97;;;;;;;8.14;43.85;101053.19;5022243;27;20286;-71
2022/03/12 06:51:40;;;;;;;7.93;7.13;;;;;;;8.24;43.83;101056.81;5022675;27;20141;-72
2022/03/12 06:54:05;;;;;;;7.50;6.55;;;;;;;8.33;43.76;101057.09;5022871;27;20081;-71
2022/03/12 06:56:34;;;;;;;7.40;6.68;;;;;;;8.30;43.93;101049.41;5040039;27;20025;-72
2022/03/12 06:58:59;;;;;;;9.77;6.50;;;;;;;8.34;44.02;101059.63;5035514;27;20102;-70
2022/03/12 07:01:24;;;;;;;8.05;6.90;;;;;;;8.29;44.29;101053.00;5019919;27;20497;-69
2022/03/12 07:03:50;;;;;;;7.47;6.78;;;;;;;8.35;44.00;101045.47;5005311;27;20025;-71
2022/03/12 07:06:15;;;;;;;12.93;7.70;;;;;;;8.36;44.50;101051.59;5005402;27;20049;-71
2022/03/12 07:08:41;;;;;;;8.07;7.28;;;;;;;8.29;45.00;101051.22;5012576;27;20029;-71
2022/03/12 07:11:07;;;;;;;8.23;6.85;;;;;;;8.33;45.40;101051.81;5024362;27;20495;-71
2022/03/12 07:13:34;;;;;;;7.93;6.95;;;;;;;8.38;45.11;101054.97;5041270;27;20013;-71
2022/03/12 07:16:00;;;;;;;8.30;6.47;;;;;;;8.43;45.21;101048.38;5043657;27;20076;-71
2022/03/12 07:18:26;;;;;;;6.88;6.28;;;;;;;8.59;44.82;101055.19;5012411;27;20312;-70
2022/03/12 07:20:52;;;;;;;10.27;6.70;;;;;;;8.56;45.25;101053.59;5039868;27;20131;-70
2022/03/12 07:23:17;;;;;;;7.30;6.63;;;;;;;8.70;45.00;101059.63;5041169;27;20462;-69
2022/03/12 07:25:43;;;;;;;8.00;6.45;;;;;;;8.78;45.26;101057.25;5038723;27;20029;-71
2022/03/12 07:28:10;;;;;;;7.55;6.72;;;;;;;8.82;45.30;101050.78;5047409;27;20044;-70
2022/03/12 07:30:35;;;;;;;7.47;6.80;;;;;;;8.89;45.59;101054.63;5021998;27;20379;-71
2022/03/12 07:33:01;;;;;;;9.90;6.82;;;;;;;8.98;45.31;101057.50;5022306;27;20035;-72
2022/03/12 07:35:26;;;;;;;8.40;6.88;;;;;;;9.00;46.78;101063.53;5040543;27;20480;-71
2022/03/12 07:37:53;;;;;;;9.10;7.13;;;;;;;9.08;46.02;101069.03;5039743;27;20024;-73
2022/03/12 07:40:19;;;;;;;8.95;6.75;;;;;;;9.14;45.69;101062.44;5028194;27;20029;-71
2022/03/12 07:42:45;;;;;;;7.90;6.50;;;;;;;9.15;46.08;101064.97;5036104;27;20504;-70
2022/03/12 07:45:11;;;;;;;7.70;6.82;;;;;;;9.32;45.79;101063.66;5002036;27;20052;-71
2022/03/12 07:47:37;;;;;;;8.52;6.80;;;;;;;9.39;45.62;101062.22;5017114;28;20025;-70
2022/03/12 07:50:03;;;;;;;8.13;7.03;;;;;;;9.44;46.00;101073.22;5001789;27;20411;-70
2022/03/12 07:52:29;;;;;;;8.20;6.97;;;;;;;9.50;46.02;101077.19;5000211;28;20014;-70
2022/03/12 07:54:54;;;;;;;7.40;6.80;;;;;;;9.57;46.15;101082.84;5033940;27;20036;-71
2022/03/12 07:57:19;;;;;;;7.80;7.00;;;;;;;9.63;46.25;101085.84;5045167;27;20013;-70
2022/03/12 07:59:45;;;;;;;7.00;6.30;;;;;;;9.72;46.48;101083.44;5040676;27;20032;-71
2022/03/12 08:02:11;;;;;;;8.00;7.20;;;;;;;9.85;45.78;101078.81;5023085;27;20060;-70
2022/03/12 08:04:36;;;;;;;11.70;6.75;;;;;;;9.90;45.34;101089.88;5039153;27;20086;-70
2022/03/12 08:07:02;;;;;;;7.75;6.75;;;;;;;9.93;45.83;101094.91;5033818;27;20337;-70
2022/03/12 08:09:28;;;;;;;7.50;6.72;;;;;;;10.00;45.63;101089.97;5019637;27;20051;-70
2022/03/12 08:11:54;;;;;;;7.57;6.88;;;;;;;10.08;45.76;101086.69;5041224;27;20033;-71
2022/03/12 08:14:22;;;;;;;7.43;6.65;;;;;;;10.21;45.83;101094.44;5041530;27;20451;-70
2022/03/12 08:16:48;;;;;;;7.95;6.50;;;;;;;10.30;45.81;101091.88;5016840;27;20068;-71
2022/03/12 08:19:13;;;;;;;8.45;6.70;;;;;;;10.38;46.07;101099.25;5006460;27;20137;-70
2022/03/12 08:21:39;;;;;;;6.80;6.20;;;;;;;10.51;45.71;101104.34;5034789;27;20017;-71
2022/03/12 08:24:05;;;;;;;7.35;6.22;;;;;;;10.60;46.01;101108.03;5020927;27;20368;-70
2022/03/12 08:26:30;;;;;;;7.25;6.47;;;;;;;10.64;46.66;101112.94;5041465;27;20020;-70
2022/03/12 08:28:56;;;;;;;6.93;6.28;;;;;;;10.75;46.50;101111.22;5014884;27;20033;-71
2022/03/12 08:31:21;;;;;;;6.97;6.20;;;;;;;10.76;46.42;101120.81;5027668;27;20049;-70
2022/03/12 08:33:47;;;;;;;7.20;6.50;;;;;;;10.83;46.36;101119.34;5032695;27;20031;-71
2022/03/12 08:36:13;;;;;;;7.53;6.50;;;;;;;10.91;45.73;101122.16;5037332;27;20668;-70
2022/03/12 08:38:39;;;;;;;7.53;6.82;;;;;;;10.98;46.13;101120.72;5034674;27;20120;-72
2022/03/12 08:41:05;;;;;;;6.90;6.20;;;;;;;11.17;46.01;101132.38;5033233;27;20462;-71
2022/03/12 08:43:32;;;;;;;6.90;6.30;;;;;;;11.22;45.68;101135.47;5017130;28;20025;-71
2022/03/12 08:45:57;;;;;;;7.75;6.47;;;;;;;11.21;45.99;101133.81;5018083;28;20013;-71
2022/03/12 08:48:23;;;;;;;7.10;6.40;;;;;;;11.40;45.63;101130.41;5033330;28;20941;-71
2022/03/12 08:50:48;;;;;;;7.68;5.85;;;;;;;11.73;46.30;101135.53;5016097;28;20098;-70
2022/03/12 08:53:17;;;;;;;6.53;5.93;;;;;;;11.88;45.81;101136.84;5033888;28;20041;-71
2022/03/12 08:55:42;;;;;;;8.80;6.18;;;;;;;11.97;45.63;101133.41;5039560;27;20469;-71
2022/03/12 08:58:08;;;;;;;7.18;6.57;;;;;;;12.27;45.85;101134.28;5041978;28;20041;-71
2022/03/12 09:00:33;;;;;;;9.23;6.55;;;;;;;12.32;45.16;101136.53;5041398;27;20336;-71
2022/03/12 09:02:59;;;;;;;7.63;6.35;;;;;;;12.48;44.64;101126.19;5024165;28;20129;-70
2022/03/12 09:05:24;;;;;;;6.85;6.10;;;;;;;12.52;44.57;101142.66;5027150;27;20021;-71
2022/03/12 09:07:52;;;;;;;7.20;6.47;;;;;;;12.60;44.59;101145.47;5046657;28;20069;-70
2022/03/12 09:10:18;;;;;;;10.07;6.80;;;;;;;12.98;43.91;101140.28;5043919;27;20025;-70
2022/03/12 09:12:44;;;;;;;11.57;6.40;;;;;;;12.91;44.27;101144.47;5048405;27;20384;-70
2022/03/12 09:15:09;;;;;;;8.20;6.68;;;;;;;13.13;43.54;101143.28;5070766;27;20020;-70
2022/03/12 09:17:35;;;;;;;7.07;6.47;;;;;;;13.39;43.69;101147.03;5048495;27;20025;-70
2022/03/12 09:20:01;;;;;;;8.55;6.72;;;;;;;13.43;43.50;101154.72;5058271;27;20849;-70
2022/03/12 09:22:26;;;;;;;7.00;6.30;;;;;;;13.70;43.14;101146.75;5032603;27;20197;-71
2022/03/12 09:24:51;;;;;;;7.10;6.50;;;;;;;13.96;43.58;101167.38;5056654;27;20088;-70
2022/03/12 09:27:17;;;;;;;7.95;6.20;;;;;;;13.80;44.04;101164.50;5058543;27;20008;-71
2022/03/12 09:29:42;;;;;;;7.65;6.35;;;;;;;14.35;43.27;101159.13;5055475;27;20044;-71
2022/03/12 09:32:08;;;;;;;9.52;6.82;;;;;;;14.66;42.29;101166.75;5025228;27;20840;-71
2022/03/12 09:34:34;;;;;;;7.30;6.60;;;;;;;14.23;42.55;101173.66;5037430;27;20068;-73
2022/03/12 09:37:00;;;;;;;7.65;7.00;;;;;;;14.18;42.61;101163.44;5044518;27;20048;-71
2022/03/12 09:39:26;;;;;;;7.68;6.97;;;;;;;14.37;42.77;101157.16;5044025;28;20132;-71
2022/03/12 09:41:51;;;;;;;7.35;6.72;;;;;;;14.96;41.77;101162.03;5036046;27;21030;-71
2022/03/12 09:44:17;;;;;;;8.10;6.90;;;;;;;15.13;41.22;101167.44;5024893;28;20226;-71
2022/03/12 09:46:43;;;;;;;8.60;6.75;;;;;;;15.41;40.48;101170.78;5009974;28;20021;-72
2022/03/12 09:49:11;;;;;;;6.30;5.80;;;;;;;15.55;41.68;101174.69;4998546;27;20035;-72
2022/03/12 09:51:37;;;;;;;8.38;5.13;;;;;;;15.35;42.76;101161.59;5055603;27;20423;-71
2022/03/12 09:54:03;;;;;;;5.88;5.38;;;;;;;15.09;43.63;101151.78;5032354;27;20040;-71
2022/03/12 09:56:29;;;;;;;5.65;5.20;;;;;;;14.81;44.18;101167.06;5057290;27;20012;-72
2022/03/12 09:58:55;;;;;;;5.97;5.47;;;;;;;15.33;43.80;101160.06;5054596;27;20695;-71
2022/03/12 10:01:20;;;;;;;6.00;5.40;;;;;;;15.97;42.02;101165.91;5067152;27;20016;-72
2022/03/12 10:03:46;;;;;;;5.95;5.38;;;;;;;16.26;40.91;101160.16;5039429;27;20520;-72
2022/03/12 10:06:11;;;;;;;5.82;5.32;;;;;;;15.91;41.82;101158.56;5038214;27;21045;-71
2022/03/12 10:08:37;;;;;;;5.70;5.25;;;;;;;16.74;40.60;101157.69;5005500;27;20007;-70
2022/03/12 10:11:04;;;;;;;5.68;5.13;;;;;;;16.82;40.38;101154.16;5033699;27;20033;-72
2022/03/12 10:13:30;;;;;;;5.45;5.05;;;;;;;15.56;42.47;101147.03;5035421;27;20036;-71
2022/03/12 10:15:55;;;;;;;5.40;5.00;;;;;;;14.79;44.77;101152.22;5033061;27;20012;-71
2022/03/12 10:18:22;;;;;;;4.85;4.45;;;;;;;15.37;43.46;101164.09;5038382;27;20927;-71
2022/03/12 10:20:48;;;;;;;4.93;4.60;;;;;;;15.35;43.39;101158.94;5035248;27;20020;-71
2022/03/12 10:23:13;;;;;;;4.88;4.50;;;;;;;15.25;44.05;101155.53;5035245;27;20929;-71
2022/03/12 10:25:39;;;;;;;5.00;4.60;;;;;;;15.77;42.82;101160.78;5020666;27;20380;-71
2022/03/12 10:28:04;;;;;;;4.10;3.90;;;;;;;16.31;42.28;101151.63;5008290;27;20060;-71
2022/03/12 10:30:30;;;;;;;4.88;4.57;;;;;;;16.74;40.78;101157.69;5006181;27;20437;-71
2022/03/12 10:32:55;;;;;;;5.05;4.43;;;;;;;17.56;39.43;101158.59;5008119;27;20029;-69
2022/03/12 10:35:21;;;;;;;4.35;4.05;;;;;;;17.81;38.37;101145.91;5019967;27;20021;-70
2022/03/12 10:37:47;;;;;;;4.07;3.78;;;;;;;17.48;39.16;101151.41;5042720;27;20863;-72
2022/03/12 10:40:16;;;;;;;3.72;3.50;;;;;;;17.31;39.06;101140.75;5036277;27;20285;-71
2022/03/12 10:42:52;;;;;;;3.28;3.08;;;;;;;17.05;39.43;101154.34;5026367;27;21220;-71
2022/03/12 10:45:19;;;;;;;2.63;2.53;;;;;;;17.55;38.30;101139.00;5027601;27;20032;-70
2022/03/12 10:47:47;;;;;;;3.47;2.72;;;;;;;18.73;36.27;101138.97;5016937;27;20032;-69
2022/03/12 10:50:15;;;;;;;3.17;2.97;;;;;;;19.58;35.36;101145.84;5023881;27;20060;-69
2022/03/12 10:52:45;;;;;;;4.10;3.70;;;;;;;19.89;35.23;101148.31;5026083;27;20701;-70
2022/03/12 10:55:17;;;;;;;3.53;3.33;;;;;;;19.78;34.06;101138.03;5031156;27;20035;-70
2022/03/12 10:58:01;;;;;;;3.10;2.80;;;;;;;20.47;33.40;101144.78;5026180;27;20398;-70
2022/03/12 11:00:29;;;;;;;3.50;3.20;;;;;;;20.08;34.25;101146.06;5043882;27;20020;-70
2022/03/12 11:02:57;;;;;;;4.53;3.88;;;;;;;20.16;33.92;101140.56;5023997;27;20321;-69
2022/03/12 11:05:27;;;;;;;3.35;3.10;;;;;;;20.14;33.87;101147.16;5039510;27;20017;-70
2022/03/12 11:08:05;;;;;;;3.25;3.08;;;;;;;19.87;34.61;101139.63;5029920;27;20342;-69
2022/03/12 11:10:37;;;;;;;4.05;2.78;;;;;;;19.93;34.03;101124.63;5018528;27;20024;-69
2022/03/12 11:13:03;;;;;;;2.50;2.40;;;;;;;20.10;33.69;101129.75;5022829;27;20040;-69
2022/03/12 11:15:32;;;;;;;2.90;2.75;;;;;;;20.50;32.83;101128.28;5027209;27;20630;-70
2022/03/12 11:17:57;;;;;;;5.47;2.65;;;;;;;20.30;32.72;101124.59;5033081;27;20061;-69
2022/03/12 11:20:23;;;;;;;3.50;2.60;;;;;;;20.98;32.14;101132.19;5030528;27;21112;-68
2022/03/12 11:23:04;;;;;;;3.00;2.88;;;;;;;19.82;33.45;101130.47;5026341;27;20817;-68
2022/03/12 11:25:29;;;;;;;3.30;3.00;;;;;;;19.29;34.47;101131.44;5013517;27;20426;-69